Time;durP1;ratioP1;P1;durP2;ratioP2;P2;SDS_P1;SDS_P2;PMS_P1;PMS_P2;Temp;Humidity;BMP_temperature;BMP_pressure;BME280_temperature;BME280_humidity;BME280_pressure;Samples;Min_cycle;Max_cycle;Signal;HPM_P1;HPM_P2
2022/07/18 00:02:21;;;;;;;4.30;2.90;;;;;;;20.04;52.35;96330.78;5075298;28;20384;-70
2022/07/18 00:04:47;;;;;;;3.30;3.00;;;;;;;20.08;51.32;96332.06;5077889;28;20025;-70
2022/07/18 00:07:12;;;;;;;3.13;2.90;;;;;;;20.04;51.16;96334.28;5086547;28;20400;-70
2022/07/18 00:09:39;;;;;;;3.30;3.00;;;;;;;19.93;51.65;96334.75;5085792;28;20055;-70
2022/07/18 00:12:07;;;;;;;3.03;2.78;;;;;;;19.76;52.59;96334.91;5085614;28;20039;-70
2022/07/18 00:14:32;;;;;;;2.95;2.75;;;;;;;19.78;52.74;96329.38;5078144;28;20033;-70
2022/07/18 00:16:59;;;;;;;3.13;2.88;;;;;;;19.71;52.75;96331.97;5085367;28;20017;-70
2022/07/18 00:19:25;;;;;;;2.95;2.75;;;;;;;19.63;53.29;96334.72;5080048;28;20040;-70
2022/07/18 00:21:50;;;;;;;3.95;2.70;;;;;;;19.59;53.57;96328.91;5082649;28;20099;-70
2022/07/18 00:24:15;;;;;;;2.83;2.70;;;;;;;19.60;53.77;96333.25;5082835;28;20150;-70
2022/07/18 00:26:41;;;;;;;3.75;3.45;;;;;;;19.54;54.50;96333.16;5084549;28;20036;-70
2022/07/18 00:29:06;;;;;;;3.60;3.30;;;;;;;19.47;54.85;96336.56;5079925;28;20024;-70
2022/07/18 00:31:32;;;;;;;3.58;2.65;;;;;;;19.35;55.05;96332.69;5078963;28;20138;-70
2022/07/18 00:33:57;;;;;;;2.85;2.65;;;;;;;19.32;55.01;96335.69;5078973;28;20027;-70
2022/07/18 00:36:23;;;;;;;3.33;2.55;;;;;;;19.35;54.54;96338.03;5086892;28;20475;-70
2022/07/18 00:38:48;;;;;;;2.95;2.75;;;;;;;19.39;54.45;96344.66;5074663;28;20027;-70
2022/07/18 00:41:15;;;;;;;3.25;3.03;;;;;;;19.43;54.25;96339.75;5087270;28;20073;-70
2022/07/18 00:43:40;;;;;;;3.10;2.88;;;;;;;19.35;54.99;96339.84;5078591;28;20487;-70
2022/07/18 00:46:06;;;;;;;3.08;2.83;;;;;;;19.21;55.08;96336.16;5079130;28;20039;-69
2022/07/18 00:48:31;;;;;;;3.15;2.85;;;;;;;19.18;54.48;96335.50;5078953;28;20409;-70
2022/07/18 00:50:56;;;;;;;2.53;2.42;;;;;;;19.13;54.77;96337.88;5081681;28;20056;-70
2022/07/18 00:53:23;;;;;;;3.30;3.00;;;;;;;19.22;54.96;96335.94;5081338;28;20021;-70
2022/07/18 00:55:50;;;;;;;3.08;2.88;;;;;;;19.22;55.07;96333.28;5076567;28;20021;-70
2022/07/18 00:58:15;;;;;;;2.80;2.60;;;;;;;19.21;54.56;96342.28;5082508;28;20036;-69
2022/07/18 01:03:26;;;;;;;3.00;2.70;;;;;;;19.11;54.91;96339.06;5085382;28;20038;-70
2022/07/18 01:05:51;;;;;;;3.42;3.13;;;;;;;19.07;56.59;96343.09;5082902;28;20107;-70
2022/07/18 01:08:17;;;;;;;2.95;2.65;;;;;;;19.05;56.50;96340.59;5081155;28;20065;-70
2022/07/18 01:10:43;;;;;;;3.67;2.65;;;;;;;19.02;55.74;96339.16;5084814;28;20463;-70
2022/07/18 01:13:08;;;;;;;2.83;2.63;;;;;;;19.00;58.56;96337.66;5075902;28;20170;-70
2022/07/18 01:15:34;;;;;;;2.88;2.63;;;;;;;18.98;56.32;96336.97;5082420;28;20028;-69
2022/07/18 01:17:59;;;;;;;2.55;2.45;;;;;;;18.92;57.13;96337.69;5079678;28;20044;-69
2022/07/18 01:20:27;;;;;;;2.80;2.60;;;;;;;18.87;58.41;96343.56;5081349;28;20490;-70
2022/07/18 01:22:53;;;;;;;3.00;2.80;;;;;;;18.82;57.92;96336.09;5076430;28;20074;-70
2022/07/18 01:25:18;;;;;;;3.15;2.95;;;;;;;18.78;57.93;96341.94;5092455;28;20620;-69
2022/07/18 01:27:44;;;;;;;3.45;3.25;;;;;;;18.74;59.33;96336.16;5085243;28;20556;-70
2022/07/18 01:30:09;;;;;;;7.93;2.95;;;;;;;18.67;58.25;96337.84;5080411;28;20153;-69
2022/07/18 01:32:35;;;;;;;2.85;2.70;;;;;;;18.61;58.32;96342.06;5074492;28;20063;-69
2022/07/18 01:35:00;;;;;;;3.65;3.38;;;;;;;18.56;58.27;96344.41;5082538;28;20031;-69
2022/07/18 01:37:26;;;;;;;3.97;3.05;;;;;;;18.54;58.73;96343.75;5079544;28;20107;-69
2022/07/18 01:39:51;;;;;;;5.50;2.97;;;;;;;18.50;59.00;96345.97;5081496;28;20028;-69
2022/07/18 01:42:17;;;;;;;3.60;3.08;;;;;;;18.47;58.51;96349.81;5080728;28;20035;-69
2022/07/18 01:44:43;;;;;;;2.83;2.60;;;;;;;18.44;59.07;96349.31;5084919;28;20371;-69
2022/07/18 01:47:10;;;;;;;3.58;3.10;;;;;;;18.49;59.42;96349.66;5076659;28;20021;-69
2022/07/18 01:49:36;;;;;;;4.60;3.15;;;;;;;18.43;58.94;96350.34;5082149;28;20012;-69
2022/07/18 01:52:02;;;;;;;3.20;2.95;;;;;;;18.52;58.25;96356.44;5078399;28;20036;-69
2022/07/18 01:54:30;;;;;;;3.03;2.83;;;;;;;18.49;58.21;96354.97;5082574;28;20028;-69
2022/07/18 01:56:56;;;;;;;3.50;3.17;;;;;;;18.44;57.88;96352.00;5079205;28;20046;-69
2022/07/18 01:59:23;;;;;;;3.22;2.92;;;;;;;18.39;58.12;96357.03;5080637;28;20052;-69
2022/07/18 02:01:48;;;;;;;3.83;3.13;;;;;;;18.29;58.99;96358.09;5087058;28;20020;-70
2022/07/18 02:04:14;;;;;;;3.50;3.30;;;;;;;18.20;59.72;96364.44;5087397;28;20024;-69
2022/07/18 02:06:39;;;;;;;3.15;2.95;;;;;;;18.21;59.73;96363.44;5081388;28;20024;-69
2022/07/18 02:09:06;;;;;;;3.75;2.70;;;;;;;18.21;58.99;96358.09;5086026;28;20024;-69
2022/07/18 02:11:32;;;;;;;3.05;2.83;;;;;;;18.19;59.38;96365.44;5095981;28;20054;-69
2022/07/18 02:13:58;;;;;;;5.55;3.08;;;;;;;18.18;59.97;96364.63;5081228;28;20097;-69
2022/07/18 02:16:23;;;;;;;3.58;3.05;;;;;;;18.15;60.35;96364.13;5082397;28;20028;-69
2022/07/18 02:18:49;;;;;;;3.58;3.28;;;;;;;18.10;60.81;96369.97;5080668;28;20032;-69
2022/07/18 02:21:14;;;;;;;3.00;2.80;;;;;;;18.08;60.98;96366.66;5077550;28;20036;-69
2022/07/18 02:23:41;;;;;;;3.83;3.45;;;;;;;18.03;60.24;96367.19;5087637;28;20059;-69
2022/07/18 02:26:07;;;;;;;3.05;2.85;;;;;;;18.04;59.91;96365.34;5083559;28;20024;-69
2022/07/18 02:28:33;;;;;;;3.00;2.80;;;;;;;18.07;60.18;96372.16;5078978;28;20032;-69
2022/07/18 02:30:59;;;;;;;5.15;4.72;;;;;;;18.05;60.93;96367.00;5078435;28;20023;-69
2022/07/18 02:33:24;;;;;;;5.40;3.90;;;;;;;18.01;65.67;96368.31;5087222;28;20099;-69
2022/07/18 02:35:50;;;;;;;3.50;3.30;;;;;;;17.91;62.35;96365.84;5085487;28;20032;-69
2022/07/18 02:38:15;;;;;;;3.10;3.00;;;;;;;17.86;61.98;96361.03;5085728;28;20027;-70
2022/07/18 02:40:41;;;;;;;3.20;2.90;;;;;;;17.89;60.99;96360.69;5078156;28;20449;-69
2022/07/18 02:43:06;;;;;;;3.65;3.28;;;;;;;17.90;61.93;96358.88;5079338;28;20033;-69
2022/07/18 02:45:32;;;;;;;7.10;3.15;;;;;;;17.93;61.07;96361.19;5079387;28;20059;-69
2022/07/18 02:47:57;;;;;;;3.47;3.17;;;;;;;17.89;61.15;96359.88;5079786;28;20410;-69
2022/07/18 02:50:22;;;;;;;4.95;3.65;;;;;;;17.81;63.12;96358.06;5083787;28;20019;-69
2022/07/18 02:52:50;;;;;;;3.83;3.53;;;;;;;17.70;63.64;96361.91;5080427;28;20475;-69
2022/07/18 02:55:16;;;;;;;3.35;3.10;;;;;;;17.60;62.49;96361.28;5093067;28;20028;-69
2022/07/18 02:57:41;;;;;;;3.80;3.50;;;;;;;17.62;62.46;96356.63;5060836;28;20537;-69
2022/07/18 03:00:10;;;;;;;3.70;3.40;;;;;;;17.61;63.49;96362.97;5073348;28;20036;-69
2022/07/18 03:02:35;;;;;;;4.40;3.10;;;;;;;17.59;62.37;96367.63;5076625;28;20138;-69
2022/07/18 03:05:02;;;;;;;5.07;2.88;;;;;;;17.64;61.76;96356.44;5083702;28;20126;-69
2022/07/18 03:07:27;;;;;;;3.13;2.92;;;;;;;17.56;61.86;96359.94;5090442;28;20028;-69
2022/07/18 03:09:53;;;;;;;3.92;3.03;;;;;;;17.57;61.32;96358.94;5091764;28;20039;-69
2022/07/18 03:12:18;;;;;;;3.47;3.28;;;;;;;17.59;63.32;96359.63;5082879;28;20468;-69
2022/07/18 03:14:44;;;;;;;4.63;2.70;;;;;;;17.56;62.25;96357.28;5086204;28;20052;-69
2022/07/18 03:17:09;;;;;;;3.47;3.20;;;;;;;17.55;62.66;96360.94;5085139;28;20027;-69
2022/07/18 03:19:35;;;;;;;3.80;3.30;;;;;;;17.54;63.15;96357.47;5072380;28;20028;-69
2022/07/18 03:22:02;;;;;;;3.45;3.15;;;;;;;17.53;64.11;96355.81;5083171;28;20048;-69
2022/07/18 03:24:27;;;;;;;5.18;3.65;;;;;;;17.44;63.38;96356.81;5074421;28;20024;-69
2022/07/18 03:26:53;;;;;;;3.40;3.20;;;;;;;17.40;63.48;96351.00;5084441;28;20078;-69
2022/07/18 03:29:18;;;;;;;4.57;3.05;;;;;;;17.35;63.47;96342.69;5088353;28;20028;-69
2022/07/18 03:31:44;;;;;;;3.40;3.10;;;;;;;17.31;63.54;96358.19;5089806;28;20035;-69
2022/07/18 03:34:09;;;;;;;4.53;3.38;;;;;;;17.22;64.41;96355.69;5081023;28;20036;-69
2022/07/18 03:36:34;;;;;;;3.40;3.15;;;;;;;17.22;64.20;96350.38;5088190;28;20482;-69
2022/07/18 03:39:01;;;;;;;3.55;3.30;;;;;;;17.26;63.76;96349.03;5063369;28;20032;-69
2022/07/18 03:41:26;;;;;;;3.17;3.00;;;;;;;17.22;63.78;96347.72;5090609;28;20084;-69
2022/07/18 03:43:51;;;;;;;3.05;2.92;;;;;;;17.18;66.37;96349.84;5086550;28;20115;-69
2022/07/18 03:46:17;;;;;;;3.88;3.60;;;;;;;17.06;65.32;96354.69;5096269;28;20024;-69
2022/07/18 03:48:42;;;;;;;3.75;3.45;;;;;;;17.03;65.93;96357.69;5096499;28;20035;-70
2022/07/18 03:51:08;;;;;;;4.43;3.53;;;;;;;17.04;67.20;96357.53;5096188;28;20035;-70
2022/07/18 03:53:33;;;;;;;3.88;3.05;;;;;;;17.02;65.82;96353.38;5095800;28;20070;-69
2022/07/18 03:55:59;;;;;;;3.47;3.22;;;;;;;17.01;65.46;96360.50;5096153;28;20024;-69
2022/07/18 03:58:24;;;;;;;5.93;3.17;;;;;;;17.02;64.50;96362.19;5096051;28;20048;-69
2022/07/18 04:00:50;;;;;;;4.07;3.40;;;;;;;17.02;64.71;96356.03;5096498;28;20111;-70
2022/07/18 04:03:17;;;;;;;3.63;3.42;;;;;;;17.04;64.53;96354.03;5095961;28;20027;-69
2022/07/18 04:05:44;;;;;;;3.63;3.33;;;;;;;17.06;64.48;96357.34;5096470;28;20085;-69
2022/07/18 04:08:09;;;;;;;4.68;3.50;;;;;;;17.12;64.85;96351.34;5096073;28;20659;-69
2022/07/18 04:10:35;;;;;;;3.60;3.30;;;;;;;17.15;63.96;96353.72;5111515;28;20063;-69
2022/07/18 04:13:00;;;;;;;3.70;3.40;;;;;;;17.15;65.12;96359.03;5116781;28;20501;-69
2022/07/18 04:15:26;;;;;;;4.15;3.28;;;;;;;17.14;64.67;96352.03;5116615;28;20023;-69
2022/07/18 04:17:52;;;;;;;5.10;3.38;;;;;;;17.06;65.29;96354.69;5116629;27;20015;-69
2022/07/18 04:20:19;;;;;;;3.47;3.28;;;;;;;17.05;66.02;96366.31;5116724;28;20044;-69
2022/07/18 04:22:56;;;;;;;7.00;3.38;;;;;;;17.13;64.57;96362.84;5116516;28;20394;-69
2022/07/18 04:25:24;;;;;;;3.95;3.60;;;;;;;17.11;64.10;96357.66;5112689;28;20142;-69
2022/07/18 04:27:50;;;;;;;3.30;3.10;;;;;;;17.05;64.21;96363.66;5090927;28;20038;-69
2022/07/18 04:30:17;;;;;;;3.53;3.30;;;;;;;17.06;64.71;96364.50;5091718;28;20032;-70
2022/07/18 04:32:43;;;;;;;3.75;3.47;;;;;;;17.09;65.27;96362.31;5084198;28;20025;-69
2022/07/18 04:35:11;;;;;;;4.00;3.70;;;;;;;17.06;65.64;96360.00;5096013;28;20027;-69
2022/07/18 04:37:36;;;;;;;5.47;3.60;;;;;;;17.01;66.10;96357.84;5095904;28;20109;-69
2022/07/18 04:40:03;;;;;;;3.50;3.20;;;;;;;16.98;65.82;96355.50;5093003;28;20099;-69
2022/07/18 04:42:30;;;;;;;7.72;3.83;;;;;;;16.93;66.21;96354.34;5092820;28;20148;-69
2022/07/18 04:44:56;;;;;;;4.05;3.65;;;;;;;16.92;66.72;96361.47;5092643;28;20031;-69
2022/07/18 04:47:21;;;;;;;3.95;3.65;;;;;;;16.99;66.00;96354.50;5092749;28;20024;-69
2022/07/18 04:49:46;;;;;;;4.43;3.75;;;;;;;17.08;64.95;96351.88;5092564;28;20031;-69
2022/07/18 04:52:12;;;;;;;3.90;3.60;;;;;;;17.12;64.69;96348.69;5091587;28;20020;-69
2022/07/18 04:54:37;;;;;;;4.32;3.90;;;;;;;17.16;65.43;96355.38;5088382;28;20039;-69
2022/07/18 04:57:02;;;;;;;3.58;3.30;;;;;;;17.11;65.73;96352.34;5089290;28;20031;-69
2022/07/18 04:59:28;;;;;;;3.80;3.50;;;;;;;17.06;66.22;96346.72;5088727;28;20036;-69
2022/07/18 05:01:53;;;;;;;3.85;3.60;;;;;;;17.08;66.72;96350.03;5092615;28;20459;-69
2022/07/18 05:04:18;;;;;;;4.05;3.70;;;;;;;17.10;66.75;96356.00;5092369;28;20027;-69
2022/07/18 05:06:44;;;;;;;4.63;4.22;;;;;;;17.12;66.54;96353.19;5092306;28;20052;-69
2022/07/18 05:09:09;;;;;;;4.22;3.83;;;;;;;17.11;66.45;96349.69;5090233;28;20371;-69
2022/07/18 05:11:35;;;;;;;4.13;3.80;;;;;;;17.01;68.05;96349.03;5112670;28;20027;-69
2022/07/18 05:14:01;;;;;;;4.22;3.22;;;;;;;17.03;67.98;96350.56;5112483;28;20035;-69
2022/07/18 05:16:26;;;;;;;3.75;3.45;;;;;;;17.09;67.67;96356.19;5094782;28;20486;-69
2022/07/18 05:18:51;;;;;;;7.72;4.75;;;;;;;17.08;67.96;96358.00;5112457;28;20028;-69
2022/07/18 05:21:17;;;;;;;4.28;3.88;;;;;;;17.10;67.86;96353.34;5112060;28;20375;-69
2022/07/18 05:23:42;;;;;;;4.30;4.00;;;;;;;17.21;69.38;96356.69;5112500;28;20020;-69
2022/07/18 05:26:07;;;;;;;4.75;4.20;;;;;;;17.34;68.87;96354.31;5098201;28;20761;-69
2022/07/18 05:28:33;;;;;;;7.82;3.78;;;;;;;17.57;67.01;96356.28;5100195;28;20028;-69
2022/07/18 05:30:58;;;;;;;4.20;3.90;;;;;;;17.74;66.23;96368.56;5085726;28;20046;-69
2022/07/18 05:33:24;;;;;;;4.30;3.97;;;;;;;17.83;65.05;96372.03;5078973;28;20028;-69
2022/07/18 05:35:49;;;;;;;4.10;3.70;;;;;;;17.94;65.55;96370.84;5090921;28;20024;-69
2022/07/18 05:38:15;;;;;;;4.85;3.80;;;;;;;18.10;65.16;96369.16;5087055;28;20027;-69
2022/07/18 05:40:40;;;;;;;4.53;3.70;;;;;;;18.24;64.94;96371.09;5091488;28;20376;-69
2022/07/18 05:43:06;;;;;;;6.30;4.10;;;;;;;18.33;65.95;96378.03;5090700;28;20020;-69
2022/07/18 05:45:31;;;;;;;4.93;3.65;;;;;;;18.45;65.68;96375.81;5091440;28;20106;-69
2022/07/18 05:47:57;;;;;;;4.03;3.67;;;;;;;18.54;64.62;96379.28;5091768;28;20009;-69
2022/07/18 05:50:23;;;;;;;5.72;3.75;;;;;;;18.60;63.83;96378.56;5090992;28;20051;-69
2022/07/18 05:52:49;;;;;;;6.75;4.07;;;;;;;18.73;63.18;96380.66;5084062;28;20016;-69
2022/07/18 05:55:14;;;;;;;4.35;3.95;;;;;;;18.89;62.05;96376.22;5086452;28;20024;-69
2022/07/18 05:57:39;;;;;;;4.40;3.47;;;;;;;19.01;61.07;96379.34;5088345;28;20087;-69
2022/07/18 06:00:07;;;;;;;4.10;3.50;;;;;;;19.10;61.52;96372.91;5083572;28;20115;-69
2022/07/18 06:02:33;;;;;;;4.55;4.15;;;;;;;19.21;61.23;96378.84;5091434;28;20020;-69
2022/07/18 06:04:59;;;;;;;5.85;3.35;;;;;;;19.31;59.69;96368.72;5105040;28;20012;-69
2022/07/18 06:07:25;;;;;;;4.38;3.63;;;;;;;19.43;58.99;96367.31;5097147;28;20067;-69
2022/07/18 06:09:50;;;;;;;6.57;3.35;;;;;;;19.62;58.57;96370.47;5108393;28;20032;-69
2022/07/18 06:12:16;;;;;;;4.00;3.60;;;;;;;19.81;57.69;96368.28;5103658;28;20401;-69
2022/07/18 06:14:41;;;;;;;4.00;3.60;;;;;;;19.97;57.76;96368.09;5108515;28;20073;-69
2022/07/18 06:17:06;;;;;;;3.42;3.13;;;;;;;20.12;57.72;96360.09;5107238;28;20024;-69
2022/07/18 06:19:32;;;;;;;6.20;3.13;;;;;;;20.27;57.37;96359.22;5092204;28;20032;-70
2022/07/18 06:21:59;;;;;;;5.60;4.28;;;;;;;20.45;57.06;96364.19;5089906;28;20027;-71
2022/07/18 06:24:24;;;;;;;3.72;3.40;;;;;;;20.72;55.43;96367.16;5104640;28;20081;-69
2022/07/18 06:26:49;;;;;;;5.88;3.63;;;;;;;21.00;54.51;96364.59;5107043;28;20478;-68
2022/07/18 06:29:15;;;;;;;5.95;4.40;;;;;;;21.22;54.23;96366.41;5106578;28;20496;-68
2022/07/18 06:31:41;;;;;;;10.75;3.95;;;;;;;21.54;51.96;96377.56;5107620;28;20054;-68
2022/07/18 06:34:06;;;;;;;5.38;3.70;;;;;;;21.93;52.26;96370.06;5108415;28;20027;-70
2022/07/18 06:36:32;;;;;;;6.03;3.58;;;;;;;22.15;51.68;96373.47;5089414;28;20120;-68
2022/07/18 06:38:57;;;;;;;3.28;3.00;;;;;;;22.29;51.04;96372.50;5083093;28;20403;-69
2022/07/18 06:41:23;;;;;;;4.43;3.63;;;;;;;22.49;49.22;96374.47;5079320;28;20115;-72
2022/07/18 06:43:48;;;;;;;3.65;3.30;;;;;;;22.73;48.01;96366.91;5083659;28;20016;-71
2022/07/18 06:46:13;;;;;;;3.35;3.05;;;;;;;22.98;46.87;96369.03;5081272;28;20487;-71
2022/07/18 06:48:39;;;;;;;2.90;2.70;;;;;;;23.31;46.57;96369.06;5077401;28;20487;-71
2022/07/18 06:51:05;;;;;;;3.58;3.28;;;;;;;23.73;45.33;96357.28;5084683;28;20070;-72
2022/07/18 06:53:32;;;;;;;2.80;2.70;;;;;;;24.08;44.56;96365.06;5101282;28;20508;-73
2022/07/18 06:55:57;;;;;;;4.97;3.13;;;;;;;24.43;43.73;96358.56;5101455;28;20094;-72
2022/07/18 07:02:04;;;;;;;5.15;3.38;;;;;;;25.08;42.04;96360.25;5092631;28;20047;-73
2022/07/18 07:04:30;;;;;;;5.10;2.97;;;;;;;25.60;41.03;96359.28;5105699;28;20044;-73
2022/07/18 07:06:56;;;;;;;2.90;2.70;;;;;;;26.06;39.53;96354.44;5089030;28;20028;-72
2022/07/18 07:09:21;;;;;;;3.58;2.90;;;;;;;26.28;39.27;96359.41;5090630;28;20028;-71
2022/07/18 07:11:46;;;;;;;3.67;2.65;;;;;;;26.56;38.48;96369.66;5096357;28;20519;-71
2022/07/18 07:14:12;;;;;;;4.38;2.65;;;;;;;26.86;37.68;96368.91;5088154;28;20032;-72
2022/07/18 07:16:37;;;;;;;3.72;3.00;;;;;;;27.03;37.82;96365.53;5098395;28;20091;-71
2022/07/18 07:19:02;;;;;;;5.13;3.10;;;;;;;27.19;36.54;96364.06;5105734;28;20057;-72
2022/07/18 07:21:28;;;;;;;5.07;3.13;;;;;;;27.59;36.06;96366.13;5091172;28;20040;-72
2022/07/18 07:23:54;;;;;;;2.58;2.38;;;;;;;28.11;35.29;96369.16;5095242;28;20051;-72
2022/07/18 07:26:19;;;;;;;3.13;2.88;;;;;;;28.31;33.96;96357.97;5100764;28;20562;-71
2022/07/18 07:28:45;;;;;;;2.83;2.58;;;;;;;28.36;35.08;96354.53;5101815;28;20028;-71
2022/07/18 07:31:11;;;;;;;2.78;2.58;;;;;;;28.66;32.95;96359.75;5106555;28;20023;-72
2022/07/18 07:33:36;;;;;;;3.20;2.90;;;;;;;28.75;32.88;96360.19;5092288;28;20399;-72
2022/07/18 07:36:03;;;;;;;3.15;2.90;;;;;;;28.87;33.97;96352.03;5104773;28;20054;-72
2022/07/18 07:38:29;;;;;;;3.25;2.85;;;;;;;28.90;32.94;96350.72;5078850;28;20042;-72
2022/07/18 07:40:55;;;;;;;3.03;2.70;;;;;;;29.41;30.89;96348.91;5089780;28;20500;-73
2022/07/18 07:43:20;;;;;;;3.00;2.70;;;;;;;29.64;30.32;96352.50;5095814;28;20028;-73
2022/07/18 07:45:48;;;;;;;3.80;2.70;;;;;;;29.78;30.01;96354.91;5106546;28;20042;-73
2022/07/18 07:48:14;;;;;;;6.20;2.90;;;;;;;29.79;31.35;96348.41;5105295;28;20027;-73
2022/07/18 07:50:40;;;;;;;2.67;2.47;;;;;;;30.11;30.75;96347.75;5097399;28;20471;-75
2022/07/18 07:53:06;;;;;;;4.57;2.65;;;;;;;30.19;30.22;96350.06;5089566;28;20035;-73
2022/07/18 07:55:31;;;;;;;3.33;2.42;;;;;;;30.23;29.85;96345.75;5089452;28;20024;-71
2022/07/18 07:57:56;;;;;;;2.58;2.47;;;;;;;30.31;29.97;96344.50;5089290;28;20012;-72
2022/07/18 08:00:22;;;;;;;2.83;2.60;;;;;;;30.33;29.78;96342.34;5089053;28;20028;-73
2022/07/18 08:03:07;;;;;;;4.82;3.08;;;;;;;30.74;28.53;96344.75;5089181;28;20083;-73
2022/07/18 08:05:37;;;;;;;7.22;3.17;;;;;;;30.62;28.42;96344.88;5089088;28;20503;-74
2022/07/18 08:08:03;;;;;;;3.05;2.85;;;;;;;30.93;28.40;96331.59;5089216;28;20024;-70
2022/07/18 08:10:29;;;;;;;5.40;3.13;;;;;;;30.98;29.65;96333.56;5103720;28;20822;-70
2022/07/18 08:12:54;;;;;;;3.55;3.00;;;;;;;31.19;28.18;96331.03;5109925;28;20020;-72
2022/07/18 08:15:20;;;;;;;3.13;2.88;;;;;;;31.56;27.92;96324.81;5107724;28;20020;-70
2022/07/18 08:17:45;;;;;;;5.03;3.30;;;;;;;31.61;26.48;96327.56;5111632;28;20035;-71
2022/07/18 08:20:11;;;;;;;3.90;3.60;;;;;;;31.61;26.30;96326.75;5113890;28;20371;-71
2022/07/18 08:22:55;;;;;;;5.75;3.38;;;;;;;31.51;26.77;96319.34;5113736;28;20059;-71
2022/07/18 08:25:21;;;;;;;3.73;3.43;;;;;;;31.92;27.23;96322.34;5110331;28;20027;-71
2022/07/18 08:27:46;;;;;;;3.53;3.25;;;;;;;31.97;26.96;96324.28;5113197;28;20077;-71
2022/07/18 08:30:12;;;;;;;4.07;3.30;;;;;;;31.71;27.66;96319.47;5103485;28;20046;-69
2022/07/18 08:32:37;;;;;;;3.80;3.50;;;;;;;32.09;26.84;96313.16;5113361;28;20077;-69
2022/07/18 08:35:03;;;;;;;4.60;3.78;;;;;;;32.23;25.80;96313.50;5102365;28;20031;-69
2022/07/18 08:37:28;;;;;;;3.53;3.22;;;;;;;32.50;27.04;96309.81;5096183;28;20136;-69
2022/07/18 08:39:54;;;;;;;3.25;3.05;;;;;;;32.74;26.69;96310.13;5092687;28;20487;-72
2022/07/18 08:42:24;;;;;;;3.28;3.08;;;;;;;32.69;27.08;96302.75;5092816;28;20024;-72
2022/07/18 08:44:50;;;;;;;3.20;3.00;;;;;;;33.01;25.71;96303.66;5092946;28;20012;-75
2022/07/18 08:47:19;;;;;;;4.95;2.90;;;;;;;32.82;26.66;96301.41;5092570;28;20386;-71
2022/07/18 08:49:45;;;;;;;4.03;2.72;;;;;;;32.76;25.82;96301.69;5092223;28;20115;-71
2022/07/18 08:52:11;;;;;;;2.90;2.70;;;;;;;32.82;26.36;96295.16;5092574;28;20053;-68
2022/07/18 08:54:36;;;;;;;3.80;2.88;;;;;;;33.02;26.36;96294.38;5091805;28;20151;-68
2022/07/18 08:57:02;;;;;;;2.83;2.63;;;;;;;33.10;25.52;96295.75;5092086;28;20169;-68
2022/07/18 08:59:27;;;;;;;20.75;3.20;;;;;;;33.28;25.99;96289.75;5091730;28;20016;-69
2022/07/18 09:01:52;;;;;;;19.98;3.42;;;;;;;33.37;25.47;96283.72;5104594;28;20123;-70
2022/07/18 09:04:41;;;;;;;4.55;2.83;;;;;;;33.37;24.45;96284.56;5103472;28;20058;-69
2022/07/18 09:07:08;;;;;;;4.90;2.75;;;;;;;33.64;25.25;96285.38;5093745;28;20443;-69
2022/07/18 09:09:38;;;;;;;3.00;2.75;;;;;;;34.00;24.30;96288.84;5091494;28;20906;-69
2022/07/18 09:12:03;;;;;;;5.47;3.00;;;;;;;34.61;23.88;96288.06;5092710;28;20027;-72
2022/07/18 09:14:41;;;;;;;4.75;2.90;;;;;;;34.36;23.20;96278.84;5093896;28;20391;-68
2022/07/18 09:17:14;;;;;;;5.95;2.95;;;;;;;34.25;25.21;96278.09;5097448;28;20510;-68
2022/07/18 09:19:41;;;;;;;2.80;2.60;;;;;;;33.93;25.76;96277.34;5097236;28;20080;-67
2022/07/18 09:22:20;;;;;;;2.92;2.72;;;;;;;34.13;24.28;96286.59;5100832;28;20031;-72
2022/07/18 09:24:49;;;;;;;2.78;2.67;;;;;;;34.35;25.41;96280.78;5094317;28;20471;-68
2022/07/18 09:27:30;;;;;;;2.58;2.47;;;;;;;34.25;24.91;96264.41;5091776;28;20651;-69
2022/07/18 09:30:28;;;;;;;3.00;2.80;;;;;;;34.34;24.04;96272.84;5091679;28;20039;-68
2022/07/18 09:33:03;;;;;;;3.42;2.90;;;;;;;34.67;23.53;96279.53;5091596;28;20052;-67
2022/07/18 09:35:33;;;;;;;3.15;2.85;;;;;;;34.39;24.29;96270.91;5090469;28;20028;-68
2022/07/18 09:37:59;;;;;;;5.15;2.97;;;;;;;34.74;22.53;96273.75;5089071;28;20020;-69
2022/07/18 09:40:33;;;;;;;3.80;2.50;;;;;;;34.12;23.05;96271.31;5091292;28;20419;-69
2022/07/18 09:43:02;;;;;;;3.97;2.67;;;;;;;33.43;24.04;96261.66;5091615;28;20095;-68
2022/07/18 09:45:29;;;;;;;6.60;2.85;;;;;;;33.86;24.53;96268.66;5091426;28;20043;-69
2022/07/18 09:47:58;;;;;;;3.92;2.47;;;;;;;34.05;23.90;96276.28;5091503;28;20012;-70
2022/07/18 09:50:34;;;;;;;2.90;2.70;;;;;;;34.40;22.87;96267.09;5091368;28;20565;-69
2022/07/18 09:53:03;;;;;;;3.22;2.70;;;;;;;34.45;22.91;96271.72;5089183;28;20016;-70
2022/07/18 09:55:29;;;;;;;3.08;2.78;;;;;;;34.39;23.58;96259.97;5091338;28;20030;-71
2022/07/18 09:58:05;;;;;;;7.13;2.42;;;;;;;33.78;23.90;96266.50;5090039;28;20052;-70
2022/07/18 10:00:34;;;;;;;2.40;2.20;;;;;;;34.23;23.91;96262.00;5076028;28;20029;-68
2022/07/18 10:03:00;;;;;;;5.32;2.70;;;;;;;34.19;23.49;96257.34;5074080;28;20047;-69
2022/07/18 10:05:30;;;;;;;3.25;2.75;;;;;;;34.36;23.48;96252.34;5083238;28;20071;-69
2022/07/18 10:07:56;;;;;;;2.60;2.50;;;;;;;34.42;23.08;96255.88;5090800;28;20089;-70
2022/07/18 10:10:24;;;;;;;3.90;2.65;;;;;;;33.69;23.69;96250.69;5104646;28;20034;-65
2022/07/18 10:12:53;;;;;;;2.67;2.47;;;;;;;34.41;22.89;96262.44;5111630;28;20069;-66
2022/07/18 10:15:21;;;;;;;7.10;2.55;;;;;;;33.87;23.99;96251.19;5111791;28;20099;-67
2022/07/18 10:17:46;;;;;;;3.10;2.83;;;;;;;34.10;22.98;96240.72;5111569;28;20072;-69
2022/07/18 10:20:12;;;;;;;5.97;3.08;;;;;;;34.01;23.46;96245.97;5111261;28;20023;-70
2022/07/18 10:22:43;;;;;;;8.85;2.60;;;;;;;34.48;23.06;96241.09;5110927;28;20099;-69
2022/07/18 10:25:11;;;;;;;6.78;2.80;;;;;;;34.66;22.50;96236.09;5092084;28;20038;-70
2022/07/18 10:28:07;;;;;;;4.85;2.38;;;;;;;34.04;23.45;96231.75;5105047;28;20067;-67
2022/07/18 10:30:43;;;;;;;2.65;2.45;;;;;;;34.28;23.34;96234.63;5094325;28;20498;-69
2022/07/18 10:33:37;;;;;;;2.75;2.55;;;;;;;34.52;23.42;96228.50;5108509;28;20024;-68
2022/07/18 10:36:08;;;;;;;5.40;2.73;;;;;;;35.14;22.23;96224.50;5093211;28;20036;-70
2022/07/18 10:38:34;;;;;;;2.80;2.60;;;;;;;34.69;23.34;96214.44;5090658;28;20035;-67
2022/07/18 10:41:09;;;;;;;2.88;2.55;;;;;;;35.03;22.06;96212.03;5090426;28;20028;-70
2022/07/18 10:43:37;;;;;;;3.75;2.25;;;;;;;35.07;22.51;96215.81;5098197;28;20102;-68
2022/07/18 10:46:05;;;;;;;3.20;2.65;;;;;;;35.40;21.68;96210.59;5105980;28;20023;-68
2022/07/18 10:48:33;;;;;;;3.35;2.78;;;;;;;35.12;22.70;96207.56;5090649;28;20031;-69
2022/07/18 10:51:10;;;;;;;2.80;2.50;;;;;;;35.32;22.06;96201.09;5090317;28;20034;-69
2022/07/18 10:53:53;;;;;;;3.10;2.80;;;;;;;35.43;21.51;96199.84;5090071;28;20039;-69
2022/07/18 10:56:28;;;;;;;3.05;2.45;;;;;;;35.36;21.78;96204.88;5090283;28;20107;-68
2022/07/18 10:58:56;;;;;;;2.70;2.50;;;;;;;35.04;22.53;96195.34;5090627;28;20020;-68
2022/07/18 11:01:23;;;;;;;2.78;2.58;;;;;;;35.38;21.94;96194.44;5090224;28;20135;-69
2022/07/18 11:03:49;;;;;;;4.18;3.78;;;;;;;36.00;22.10;96184.69;5093623;28;20031;-70
2022/07/18 11:06:15;;;;;;;3.33;3.03;;;;;;;36.08;21.70;96184.09;5102088;28;20034;-69
2022/07/18 11:08:40;;;;;;;3.35;2.85;;;;;;;36.26;21.46;96176.97;5092167;28;20032;-68
2022/07/18 11:11:08;;;;;;;2.70;2.50;;;;;;;36.38;21.37;96178.47;5109579;28;20023;-70
2022/07/18 11:13:36;;;;;;;3.10;2.90;;;;;;;36.34;21.70;96175.50;5104991;28;20090;-68
2022/07/18 11:16:12;;;;;;;3.13;2.83;;;;;;;36.74;20.81;96174.38;5092553;28;20050;-71
2022/07/18 11:18:40;;;;;;;5.28;2.58;;;;;;;36.60;20.66;96177.88;5089741;28;20469;-69
2022/07/18 11:21:19;;;;;;;4.03;2.40;;;;;;;36.24;21.61;96168.25;5089668;28;20028;-69
2022/07/18 11:23:47;;;;;;;3.72;2.85;;;;;;;36.60;20.67;96171.59;5089938;28;20027;-70
2022/07/18 11:26:21;;;;;;;3.25;2.95;;;;;;;36.38;21.35;96172.97;5089854;28;20012;-69
2022/07/18 11:28:48;;;;;;;;;;;;;;;36.65;21.46;96166.00;5090317;28;20065;-68
2022/07/18 11:31:15;;;;;;;6.07;2.83;;;;;;;36.47;20.55;96170.34;5089321;28;20408;-71
2022/07/18 11:33:45;;;;;;;2.60;2.40;;;;;;;36.45;21.20;96169.84;5089781;28;20157;-71
2022/07/18 11:36:14;;;;;;;5.28;2.50;;;;;;;36.90;20.79;96169.44;5089319;28;20081;-71
2022/07/18 11:38:53;;;;;;;2.70;2.40;;;;;;;36.64;20.88;96167.13;5089318;28;20024;-69
2022/07/18 11:41:20;;;;;;;2.65;2.42;;;;;;;36.80;21.19;96163.00;5089065;28;20044;-70